createdAt,value
2022-10-17T00:00:39.634Z,8.00
2022-10-17T00:03:08.921Z,6.00
2022-10-17T00:05:41.064Z,4.53
2022-10-17T00:08:09.174Z,2.23
2022-10-17T00:10:37.443Z,2.60
2022-10-17T00:13:05.588Z,2.23
2022-10-17T00:15:33.610Z,2.67
2022-10-17T00:18:03.450Z,3.97
2022-10-17T00:20:35.524Z,5.87
2022-10-17T00:23:03.735Z,5.60
2022-10-17T00:25:31.703Z,10.73
2022-10-17T00:27:59.663Z,6.70
2022-10-17T00:30:27.643Z,5.90
2022-10-17T00:32:55.664Z,4.27
2022-10-17T00:35:23.603Z,4.30
2022-10-17T00:37:52.995Z,7.77
2022-10-17T00:40:21.015Z,6.30
2022-10-17T00:42:51.149Z,6.27
2022-10-17T00:45:24.203Z,4.90
2022-10-17T00:47:56.410Z,6.37
2022-10-17T00:50:25.744Z,4.07
2022-10-17T00:52:58.959Z,3.60
2022-10-17T00:55:29.642Z,3.67
2022-10-17T00:57:58.799Z,2.93
2022-10-17T01:00:26.911Z,2.90
2022-10-17T01:02:54.902Z,3.07
2022-10-17T01:05:23.253Z,3.63
2022-10-17T01:07:53.897Z,3.53
2022-10-17T01:10:25.756Z,3.73
2022-10-17T01:13:05.345Z,3.87
2022-10-17T01:15:44.247Z,3.57
2022-10-17T01:18:28.824Z,8.73
2022-10-17T01:21:23.056Z,9.63
2022-10-17T01:24:33.014Z,7.97
2022-10-17T01:27:44.714Z,10.07
2022-10-17T01:30:45.958Z,5.30
2022-10-17T01:33:21.053Z,3.40
2022-10-17T01:35:55.963Z,3.20
2022-10-17T01:38:31.612Z,3.67
2022-10-17T01:41:04.264Z,3.23
2022-10-17T01:43:38.609Z,3.07
2022-10-17T01:46:12.611Z,3.17
2022-10-17T01:48:44.991Z,3.73
2022-10-17T01:51:18.995Z,3.27
2022-10-17T01:53:53.095Z,3.10
2022-10-17T01:56:25.840Z,3.07
2022-10-17T01:58:58.055Z,2.80
2022-10-17T02:01:27.779Z,3.17
2022-10-17T02:03:59.133Z,2.60
2022-10-17T02:06:28.719Z,3.47
2022-10-17T02:08:57.719Z,2.93
2022-10-17T02:11:27.679Z,2.87
2022-10-17T02:14:15.345Z,3.37
2022-10-17T02:16:53.270Z,3.07
2022-10-17T02:19:41.979Z,3.57
2022-10-17T02:22:19.393Z,3.33
2022-10-17T02:24:53.511Z,3.10
2022-10-17T02:27:29.819Z,3.53
2022-10-17T02:30:02.555Z,3.70
2022-10-17T02:32:39.506Z,3.47
2022-10-17T02:35:12.514Z,3.17
2022-10-17T02:37:42.955Z,3.50
2022-10-17T02:40:14.200Z,3.23
2022-10-17T02:42:46.071Z,3.10
2022-10-17T02:45:15.747Z,3.63
2022-10-17T02:47:52.276Z,3.40
2022-10-17T02:50:25.022Z,3.30
2022-10-17T02:52:59.017Z,2.90
2022-10-17T02:55:31.852Z,5.13
2022-10-17T02:58:02.615Z,5.80
2022-10-17T03:00:32.066Z,8.60
2022-10-17T03:03:00.269Z,8.60
2022-10-17T03:05:30.778Z,8.87
2022-10-17T03:08:00.638Z,6.73
2022-10-17T03:10:28.634Z,7.00
2022-10-17T03:12:56.655Z,7.30
2022-10-17T03:15:24.952Z,4.67
2022-10-17T03:17:52.939Z,2.70
2022-10-17T03:20:21.019Z,2.90
2022-10-17T03:22:50.430Z,3.30
2022-10-17T03:25:18.410Z,3.00
2022-10-17T03:27:49.238Z,6.13
2022-10-17T03:30:17.402Z,7.60
2022-10-17T03:32:45.536Z,3.80
2022-10-17T03:35:14.827Z,2.83
2022-10-17T03:37:45.973Z,3.30
2022-10-17T03:40:15.683Z,2.90
2022-10-17T03:42:44.823Z,3.63
2022-10-17T03:45:12.850Z,3.10
2022-10-17T03:47:40.939Z,4.23
2022-10-17T03:50:09.694Z,4.17
2022-10-17T03:52:39.718Z,4.27
2022-10-17T03:55:08.359Z,4.60
2022-10-17T03:57:40.174Z,6.93
2022-10-17T04:00:12.777Z,5.13
2022-10-17T04:02:44.801Z,5.30
2022-10-17T04:05:18.798Z,5.23
2022-10-17T04:07:47.469Z,4.10
2022-10-17T04:10:17.579Z,2.80
2022-10-17T04:12:47.079Z,2.97
2022-10-17T04:15:15.286Z,3.40
2022-10-17T04:17:43.292Z,3.30
2022-10-17T04:20:12.051Z,2.93
2022-10-17T04:22:40.195Z,3.00
2022-10-17T04:25:08.595Z,2.50
2022-10-17T04:27:40.317Z,3.53
2022-10-17T04:30:10.566Z,3.40
2022-10-17T04:32:39.507Z,3.40
2022-10-17T04:35:15.110Z,3.03
2022-10-17T04:37:47.857Z,3.63
2022-10-17T04:40:21.063Z,3.80
2022-10-17T04:42:49.795Z,4.13
2022-10-17T04:45:22.851Z,4.97
2022-10-17T04:47:56.250Z,3.87
2022-10-17T04:50:25.056Z,5.50
2022-10-17T04:53:13.058Z,7.10
2022-10-17T04:55:41.115Z,6.33
2022-10-17T04:58:09.673Z,5.47
2022-10-17T05:00:39.796Z,5.17
2022-10-17T05:03:22.846Z,4.00
2022-10-17T05:05:50.906Z,4.03
2022-10-17T05:08:19.182Z,2.80
2022-10-17T05:10:47.479Z,2.80
2022-10-17T05:13:15.578Z,3.67
2022-10-17T05:15:45.376Z,2.80
2022-10-17T05:18:14.123Z,2.77
2022-10-17T05:20:44.058Z,2.10
2022-10-17T05:23:12.044Z,2.40
2022-10-17T05:25:43.363Z,2.20
2022-10-17T05:28:12.505Z,2.63
2022-10-17T05:30:42.681Z,2.70
2022-10-17T05:33:12.596Z,3.20
2022-10-17T05:35:41.533Z,3.20
2022-10-17T05:38:09.936Z,2.73
2022-10-17T05:40:39.669Z,3.07
2022-10-17T05:43:07.777Z,2.70
2022-10-17T05:45:37.011Z,2.80
2022-10-17T05:48:05.511Z,3.27
2022-10-17T05:50:36.149Z,3.80
2022-10-17T05:53:10.051Z,5.33
2022-10-17T05:55:44.275Z,5.80
2022-10-17T05:58:21.744Z,3.67
2022-10-17T06:00:51.726Z,3.80
2022-10-17T06:03:19.714Z,3.50
2022-10-17T06:05:49.434Z,3.40
2022-10-17T06:08:17.853Z,3.90
2022-10-17T06:10:48.965Z,3.50
2022-10-17T06:13:17.022Z,3.63
2022-10-17T06:15:49.788Z,3.20
2022-10-17T06:18:17.798Z,3.60
2022-10-17T06:20:46.214Z,3.60
2022-10-17T06:23:17.209Z,3.80
2022-10-17T06:26:00.615Z,3.40
2022-10-17T06:28:30.271Z,3.40
2022-10-17T06:30:59.005Z,3.90
2022-10-17T06:33:28.029Z,4.10
2022-10-17T06:35:57.129Z,3.87
2022-10-17T06:38:27.944Z,3.93
2022-10-17T06:41:04.870Z,4.20
2022-10-17T06:43:32.969Z,4.03
2022-10-17T06:46:21.063Z,4.53
2022-10-17T06:48:57.133Z,4.40
2022-10-17T06:51:40.999Z,4.70
2022-10-17T06:54:12.855Z,4.50
2022-10-17T06:56:59.513Z,4.27
2022-10-17T06:59:39.968Z,4.50
2022-10-17T07:02:12.508Z,5.70
2022-10-17T07:04:40.500Z,5.97
2022-10-17T07:07:09.433Z,7.00
2022-10-17T07:09:39.009Z,8.03
2022-10-17T07:12:08.446Z,8.20
2022-10-17T07:14:36.609Z,6.87
2022-10-17T07:17:05.226Z,6.23
2022-10-17T07:19:34.220Z,5.87
2022-10-17T07:22:02.246Z,6.20
2022-10-17T07:24:31.313Z,6.30
2022-10-17T07:27:09.653Z,6.80
2022-10-17T07:29:37.775Z,6.33
2022-10-17T07:32:15.312Z,7.60
2022-10-17T07:34:43.533Z,7.23
2022-10-17T07:37:12.376Z,6.43
2022-10-17T07:39:43.733Z,6.73
2022-10-17T07:42:14.439Z,6.30
2022-10-17T07:44:42.497Z,6.70
2022-10-17T07:47:11.298Z,6.87
2022-10-17T07:49:42.478Z,7.50
2022-10-17T07:52:11.294Z,6.43
2022-10-17T07:54:39.759Z,6.00
2022-10-17T07:57:08.244Z,6.00
2022-10-17T07:59:38.877Z,6.57
2022-10-17T08:02:08.052Z,6.37
2022-10-17T08:04:36.679Z,6.27
2022-10-17T08:07:19.752Z,7.10
2022-10-17T08:09:50.067Z,7.07
2022-10-17T08:12:18.503Z,6.63
2022-10-17T08:14:48.142Z,7.47
2022-10-17T08:17:16.216Z,8.73
2022-10-17T08:19:44.308Z,8.83
2022-10-17T08:22:12.341Z,8.70
2022-10-17T08:24:40.397Z,8.83
2022-10-17T08:27:11.389Z,8.90
2022-10-17T08:29:39.772Z,8.67
2022-10-17T08:32:10.517Z,9.73
2022-10-17T08:34:38.596Z,8.60
2022-10-17T08:37:06.733Z,8.03
2022-10-17T08:39:34.824Z,7.40
2022-10-17T08:42:24.327Z,7.77
2022-10-17T08:45:01.299Z,8.87
2022-10-17T08:47:37.040Z,9.30
2022-10-17T08:50:08.599Z,8.03
2022-10-17T08:52:41.212Z,8.43
2022-10-17T08:55:17.448Z,9.77
2022-10-17T08:57:45.918Z,6.60
2022-10-17T09:00:19.208Z,5.03
2022-10-17T09:03:02.015Z,5.47
2022-10-17T09:05:40.579Z,7.00
2022-10-17T09:08:20.096Z,5.20
2022-10-17T09:10:59.829Z,4.70
2022-10-17T09:13:49.362Z,5.30
2022-10-17T09:16:40.636Z,4.00
2022-10-17T09:19:16.593Z,3.87
2022-10-17T09:21:49.589Z,3.80
2022-10-17T09:24:22.423Z,3.90
2022-10-17T09:26:52.768Z,3.17
2022-10-17T09:29:24.537Z,3.40
2022-10-17T09:32:03.366Z,3.70
2022-10-17T09:34:34.001Z,4.37
2022-10-17T09:37:03.499Z,3.20
2022-10-17T09:39:33.006Z,4.70
2022-10-17T09:42:02.535Z,3.00
2022-10-17T09:44:33.419Z,4.10
2022-10-17T09:47:14.540Z,3.00
2022-10-17T09:49:46.162Z,2.50
2022-10-17T09:52:17.567Z,2.83
2022-10-17T09:54:47.991Z,2.77
2022-10-17T09:57:17.288Z,2.73
2022-10-17T09:59:48.135Z,3.37
2022-10-17T10:02:22.300Z,2.73
2022-10-17T10:05:05.496Z,3.10
2022-10-17T10:07:37.110Z,3.07
2022-10-17T10:10:07.888Z,2.80
2022-10-17T10:12:38.372Z,3.57
2022-10-17T10:15:33.367Z,2.60
2022-10-17T10:18:01.451Z,2.87
2022-10-17T10:20:33.890Z,3.00
2022-10-17T10:23:17.266Z,2.50
2022-10-17T10:25:54.585Z,2.53
2022-10-17T10:28:26.899Z,2.60
2022-10-17T10:30:56.686Z,2.57
2022-10-17T10:33:28.536Z,2.60
2022-10-17T10:36:01.525Z,2.93
2022-10-17T10:38:31.310Z,2.70
2022-10-17T10:41:05.111Z,2.43
2022-10-17T10:43:37.815Z,3.50
2022-10-17T10:46:16.990Z,3.17
2022-10-17T10:48:52.388Z,2.50
2022-10-17T10:51:27.674Z,2.50
2022-10-17T10:54:02.458Z,2.97
2022-10-17T10:56:35.836Z,2.50
2022-10-17T10:59:10.357Z,3.10
2022-10-17T11:01:47.974Z,2.50
2022-10-17T11:04:27.086Z,2.93
2022-10-17T11:07:01.375Z,2.53
2022-10-17T11:09:43.968Z,2.70
2022-10-17T11:12:17.949Z,2.87
2022-10-17T11:14:52.914Z,2.63
2022-10-17T11:17:30.355Z,2.97
2022-10-17T11:20:07.888Z,2.77
2022-10-17T11:22:40.438Z,2.73
2022-10-17T11:25:22.008Z,2.80
2022-10-17T11:27:50.204Z,3.30
2022-10-17T11:30:18.724Z,2.60
2022-10-17T11:32:50.740Z,2.83
2022-10-17T11:35:24.731Z,2.93
2022-10-17T11:38:00.080Z,2.90
2022-10-17T11:40:32.843Z,2.60
2022-10-17T11:43:02.919Z,2.83
2022-10-17T11:45:36.516Z,3.00
2022-10-17T11:48:11.543Z,2.70
2022-10-17T11:53:40.380Z,2.80
2022-10-17T11:56:12.386Z,2.57
2022-10-17T11:58:47.369Z,2.63
2022-10-17T12:01:23.657Z,2.60
2022-10-17T12:04:18.048Z,2.83
2022-10-17T12:07:01.117Z,3.10
2022-10-17T12:09:41.916Z,2.90
2022-10-17T12:12:10.277Z,2.30
2022-10-17T12:14:43.837Z,2.40
2022-10-17T12:17:30.357Z,2.67
2022-10-17T12:20:27.277Z,2.93
2022-10-17T12:22:57.091Z,2.87
2022-10-17T12:25:31.412Z,2.70
2022-10-17T12:28:14.275Z,2.77
2022-10-17T12:30:58.330Z,2.80
2022-10-17T12:33:35.699Z,2.70
2022-10-17T12:36:37.270Z,2.47
2022-10-17T12:39:50.543Z,2.10
2022-10-17T12:42:48.614Z,2.63
2022-10-17T12:45:49.172Z,2.83
2022-10-17T12:48:52.969Z,2.33
2022-10-17T12:51:35.315Z,2.70
2022-10-17T12:54:12.945Z,2.70
2022-10-17T12:56:43.562Z,2.67
2022-10-17T12:59:17.449Z,2.50
2022-10-17T13:01:48.068Z,2.17
2022-10-17T13:04:16.898Z,2.23
2022-10-17T13:06:48.036Z,2.40
2022-10-17T13:09:25.761Z,2.27
2022-10-17T13:11:55.359Z,2.40
2022-10-17T13:14:26.570Z,2.43
2022-10-17T13:16:57.426Z,2.20
2022-10-17T13:19:30.308Z,2.63
2022-10-17T13:22:06.349Z,2.47
2022-10-17T13:24:37.977Z,2.27
2022-10-17T13:27:07.664Z,2.23
2022-10-17T13:29:44.806Z,2.20
2022-10-17T13:32:13.263Z,2.50
2022-10-17T13:34:41.314Z,2.60
2022-10-17T13:37:14.479Z,3.80
2022-10-17T13:39:55.232Z,3.40
2022-10-17T13:42:28.482Z,2.60
2022-10-17T13:44:59.407Z,2.43
2022-10-17T13:47:29.590Z,2.80
2022-10-17T13:49:58.812Z,2.53
2022-10-17T13:52:29.972Z,3.43
2022-10-17T13:55:09.893Z,2.47
2022-10-17T13:57:39.160Z,2.80
2022-10-17T14:00:18.782Z,2.83
2022-10-17T14:02:48.082Z,2.30
2022-10-17T14:05:19.456Z,2.47
2022-10-17T14:10:43.082Z,2.53
2022-10-17T14:13:22.987Z,2.53
2022-10-17T14:15:53.569Z,2.50
2022-10-17T14:18:25.412Z,2.00
2022-10-17T14:23:45.131Z,2.50
2022-10-17T14:26:16.887Z,3.00
2022-10-17T14:28:47.034Z,2.17
2022-10-17T14:31:26.562Z,2.40
2022-10-17T14:33:55.617Z,2.40
2022-10-17T14:36:37.134Z,2.77
2022-10-17T14:39:11.854Z,2.57
2022-10-17T14:41:46.179Z,2.50
2022-10-17T14:44:22.523Z,2.27
2022-10-17T14:46:55.462Z,2.70
2022-10-17T14:49:35.472Z,2.20
2022-10-17T14:52:29.261Z,2.60
2022-10-17T14:54:58.415Z,2.60
2022-10-17T14:57:41.830Z,2.60
2022-10-17T15:00:14.838Z,2.50
2022-10-17T15:02:45.138Z,2.87
2022-10-17T15:05:13.763Z,2.60
2022-10-17T15:07:42.488Z,3.63
2022-10-17T15:10:28.262Z,2.73
2022-10-17T15:12:59.315Z,2.90
2022-10-17T15:15:33.343Z,2.77
2022-10-17T15:18:02.793Z,2.97
2022-10-17T15:20:31.635Z,2.50
2022-10-17T15:23:01.163Z,2.47
2022-10-17T15:25:30.648Z,3.00
2022-10-17T15:27:59.576Z,2.83
2022-10-17T15:30:30.005Z,2.17
2022-10-17T15:32:58.810Z,2.70
2022-10-17T15:35:29.120Z,2.63
2022-10-17T15:37:57.134Z,2.63
2022-10-17T15:40:28.141Z,2.40
2022-10-17T15:42:57.257Z,2.50
2022-10-17T15:45:25.391Z,2.60
2022-10-17T15:47:55.500Z,3.00
2022-10-17T15:50:24.070Z,2.87
2022-10-17T15:52:53.641Z,2.57
2022-10-17T15:55:21.685Z,2.70
2022-10-17T15:57:50.281Z,2.50
2022-10-17T16:00:20.718Z,2.50
2022-10-17T16:02:50.172Z,2.73
2022-10-17T16:05:23.146Z,2.57
2022-10-17T16:07:53.252Z,2.70
2022-10-17T16:10:22.478Z,2.77
2022-10-17T16:12:50.862Z,2.60
2022-10-17T16:15:22.722Z,3.00
2022-10-17T16:17:51.246Z,2.87
2022-10-17T16:20:19.576Z,3.40
2022-10-17T16:22:48.433Z,2.30
2022-10-17T16:25:22.864Z,2.70
2022-10-17T16:27:54.356Z,2.90
2022-10-17T16:30:24.667Z,2.83
2022-10-17T16:32:53.144Z,2.60
2022-10-17T16:35:24.103Z,2.60
2022-10-17T16:37:52.170Z,2.53
2022-10-17T16:40:21.783Z,3.30
2022-10-17T16:42:49.924Z,2.83
2022-10-17T16:45:20.152Z,3.20
2022-10-17T16:47:49.084Z,2.13
2022-10-17T16:50:17.419Z,3.00
2022-10-17T16:52:45.524Z,2.60
2022-10-17T16:55:13.640Z,2.93
2022-10-17T17:00:18.952Z,3.73
2022-10-17T17:02:49.325Z,3.10
2022-10-17T17:05:17.465Z,4.00
2022-10-17T17:07:47.684Z,2.70
2022-10-17T17:10:15.789Z,2.83
2022-10-17T17:12:45.231Z,2.73
2022-10-17T17:15:13.310Z,3.20
2022-10-17T17:17:52.249Z,3.60
2022-10-17T17:20:21.483Z,3.10
2022-10-17T17:22:50.724Z,2.87
2022-10-17T17:25:18.820Z,3.20
2022-10-17T17:27:48.270Z,3.10
2022-10-17T17:30:16.679Z,2.53
2022-10-17T17:32:44.757Z,3.10
2022-10-17T17:35:12.886Z,2.90
2022-10-17T17:37:41.046Z,3.33
2022-10-17T17:40:09.994Z,4.10
2022-10-17T17:42:38.029Z,3.57
2022-10-17T17:45:08.993Z,3.47
2022-10-17T17:47:37.190Z,3.50
2022-10-17T17:50:05.868Z,3.10
2022-10-17T17:52:33.924Z,3.40
2022-10-17T17:55:01.918Z,3.60
2022-10-17T17:57:31.022Z,4.30
2022-10-17T17:59:59.015Z,3.67
2022-10-17T18:02:28.783Z,3.40
2022-10-17T18:04:57.047Z,3.10
2022-10-17T18:07:25.153Z,4.13
2022-10-17T18:09:53.187Z,3.60
2022-10-17T18:12:21.378Z,3.03
2022-10-17T18:14:49.534Z,3.80
2022-10-17T18:17:17.613Z,4.10
2022-10-17T18:19:50.566Z,3.57
2022-10-17T18:22:18.579Z,3.60
2022-10-17T18:24:46.613Z,3.80
2022-10-17T18:27:15.930Z,3.20
2022-10-17T18:29:45.705Z,4.30
2022-10-17T18:32:14.175Z,3.97
2022-10-17T18:34:42.861Z,3.83
2022-10-17T18:37:12.405Z,4.10
2022-10-17T18:39:40.494Z,3.40
2022-10-17T18:42:08.797Z,3.63
2022-10-17T18:44:36.818Z,3.40
2022-10-17T18:47:04.893Z,3.43
2022-10-17T18:49:32.951Z,4.00
2022-10-17T18:52:01.056Z,4.07
2022-10-17T18:54:33.318Z,3.80
2022-10-17T18:57:01.884Z,4.37
2022-10-17T18:59:30.098Z,4.00
2022-10-17T19:01:58.198Z,4.37
2022-10-17T19:04:27.360Z,3.00
2022-10-17T19:06:55.412Z,3.70
2022-10-17T19:09:23.639Z,5.13
2022-10-17T19:11:53.077Z,4.03
2022-10-17T19:14:23.581Z,4.60
2022-10-17T19:16:51.938Z,5.33
2022-10-17T19:19:22.546Z,4.27
2022-10-17T19:21:51.718Z,3.53
2022-10-17T19:24:22.725Z,3.90
2022-10-17T19:26:55.992Z,4.50
2022-10-17T19:29:31.173Z,4.47
2022-10-17T19:32:02.481Z,3.63
2022-10-17T19:34:30.889Z,3.90
2022-10-17T19:36:59.724Z,3.80
2022-10-17T19:39:33.157Z,3.60
2022-10-17T19:42:06.692Z,3.80
2022-10-17T19:44:38.681Z,3.50
2022-10-17T19:47:06.929Z,3.57
2022-10-17T19:49:35.047Z,4.07
2022-10-17T19:52:03.240Z,3.17
2022-10-17T19:54:31.529Z,3.50
2022-10-17T19:56:59.640Z,3.30
2022-10-17T19:59:29.686Z,3.73
2022-10-17T20:01:57.894Z,3.73
2022-10-17T20:04:26.027Z,4.07
2022-10-17T20:06:55.391Z,3.90
2022-10-17T20:09:25.041Z,3.33
2022-10-17T20:11:53.155Z,3.93
2022-10-17T20:14:21.213Z,3.97
2022-10-17T20:16:53.309Z,3.40
2022-10-17T20:19:21.607Z,3.50
2022-10-17T20:21:49.560Z,3.30
2022-10-17T20:24:18.189Z,3.80
2022-10-17T20:26:46.574Z,3.40
2022-10-17T20:29:17.278Z,3.67
2022-10-17T20:31:46.655Z,3.60
2022-10-17T20:34:18.094Z,3.77
2022-10-17T20:36:46.648Z,3.60
2022-10-17T20:39:16.582Z,3.83
2022-10-17T20:41:45.402Z,3.30
2022-10-17T20:44:14.095Z,4.00
2022-10-17T20:46:48.700Z,3.30
2022-10-17T20:49:30.425Z,3.47
2022-10-17T20:51:58.734Z,4.67
2022-10-17T20:54:28.215Z,3.37
2022-10-17T20:56:58.693Z,3.27
2022-10-17T20:59:29.315Z,3.93
2022-10-17T21:01:57.365Z,4.07
2022-10-17T21:04:45.266Z,4.37
2022-10-17T21:07:14.797Z,3.73
2022-10-17T21:09:42.856Z,3.83
2022-10-17T21:12:10.795Z,4.00
2022-10-17T21:14:38.836Z,4.10
2022-10-17T21:17:06.847Z,4.13
2022-10-17T21:19:35.245Z,4.10
2022-10-17T21:22:03.221Z,3.43
2022-10-17T21:24:32.761Z,4.33
2022-10-17T21:27:00.792Z,3.90
2022-10-17T21:29:28.844Z,4.20
2022-10-17T21:31:56.997Z,4.00
2022-10-17T21:34:25.496Z,3.60
2022-10-17T21:36:54.113Z,4.90
2022-10-17T21:39:23.938Z,3.90
2022-10-17T21:41:54.356Z,3.93
2022-10-17T21:44:23.720Z,4.80
2022-10-17T21:46:52.879Z,4.77
2022-10-17T21:49:22.597Z,3.90
2022-10-17T21:51:51.362Z,4.70
2022-10-17T21:54:20.669Z,3.90
2022-10-17T21:56:48.640Z,3.80
2022-10-17T21:59:18.158Z,4.27
2022-10-17T22:01:47.147Z,4.23
2022-10-17T22:04:17.051Z,4.43
2022-10-17T22:06:50.848Z,3.97
2022-10-17T22:09:20.903Z,4.30
2022-10-17T22:11:51.051Z,4.20
2022-10-17T22:14:21.822Z,3.97
2022-10-17T22:16:50.635Z,3.97
2022-10-17T22:19:26.945Z,3.90
2022-10-17T22:21:55.717Z,4.57
2022-10-17T22:24:24.356Z,3.80
2022-10-17T22:26:52.586Z,4.10
2022-10-17T22:29:22.046Z,4.10
2022-10-17T22:31:50.297Z,4.40
2022-10-17T22:34:19.178Z,3.87
2022-10-17T22:36:47.686Z,4.70
2022-10-17T22:39:15.722Z,4.63
2022-10-17T22:41:43.862Z,4.00
2022-10-17T22:44:11.850Z,4.37
2022-10-17T22:46:41.238Z,5.70
2022-10-17T22:49:09.424Z,6.03
2022-10-17T22:51:37.413Z,7.90
2022-10-17T22:54:05.523Z,7.97
2022-10-17T22:56:33.499Z,6.80
2022-10-17T22:59:01.523Z,7.77
2022-10-17T23:01:29.584Z,7.33
2022-10-17T23:03:58.992Z,7.47
2022-10-17T23:06:26.977Z,8.50
2022-10-17T23:08:55.330Z,6.87
2022-10-17T23:11:23.641Z,7.77
2022-10-17T23:13:51.643Z,7.13
2022-10-17T23:16:19.651Z,5.87
2022-10-17T23:18:47.767Z,6.17
2022-10-17T23:21:17.127Z,6.73
2022-10-17T23:23:45.160Z,6.90
2022-10-17T23:26:14.879Z,6.33
2022-10-17T23:28:44.175Z,6.80
2022-10-17T23:31:14.272Z,6.53
2022-10-17T23:33:44.650Z,6.87
2022-10-17T23:36:13.535Z,6.20
2022-10-17T23:38:44.110Z,6.10
2022-10-17T23:41:12.471Z,6.60
2022-10-17T23:43:40.619Z,6.50
2022-10-17T23:46:09.420Z,6.73
2022-10-17T23:48:38.637Z,7.27
2022-10-17T23:51:07.360Z,6.80
2022-10-17T23:53:35.815Z,6.00
2022-10-17T23:56:05.708Z,6.60
2022-10-17T23:58:33.896Z,6.90
